sensor_id;sensor_type;location;lat;lon;timestamp;temperature;humidity
9987;DHT22;5033;46.310;11.214;2024-01-27T00:00:00;6.80;99.90
9987;DHT22;5033;46.310;11.214;2024-01-27T00:02:27;6.70;99.90
9987;DHT22;5033;46.310;11.214;2024-01-27T00:04:54;6.70;99.90
9987;DHT22;5033;46.310;11.214;2024-01-27T00:07:22;6.60;99.90
9987;DHT22;5033;46.310;11.214;2024-01-27T00:09:50;6.60;99.90
9987;DHT22;5033;46.310;11.214;2024-01-27T00:12:17;6.60;99.90
9987;DHT22;5033;46.310;11.214;2024-01-27T00:14:44;6.60;99.90
9987;DHT22;5033;46.310;11.214;2024-01-27T00:17:11;6.60;99.90
9987;DHT22;5033;46.310;11.214;2024-01-27T00:19:38;6.60;99.90
9987;DHT22;5033;46.310;11.214;2024-01-27T00:22:06;6.60;99.90
9987;DHT22;5033;46.310;11.214;2024-01-27T00:24:35;6.60;99.90
9987;DHT22;5033;46.310;11.214;2024-01-27T00:27:02;6.70;99.90
9987;DHT22;5033;46.310;11.214;2024-01-27T00:29:29;6.70;99.90
9987;DHT22;5033;46.310;11.214;2024-01-27T00:31:56;6.70;99.90
9987;DHT22;5033;46.310;11.214;2024-01-27T00:34:23;6.70;99.90
9987;DHT22;5033;46.310;11.214;2024-01-27T00:36:50;6.70;99.90
9987;DHT22;5033;46.310;11.214;2024-01-27T00:39:18;6.70;99.90
9987;DHT22;5033;46.310;11.214;2024-01-27T00:41:46;6.70;99.90
9987;DHT22;5033;46.310;11.214;2024-01-27T00:44:13;6.70;99.90
9987;DHT22;5033;46.310;11.214;2024-01-27T00:46:40;6.70;99.90
9987;DHT22;5033;46.310;11.214;2024-01-27T00:49:07;6.60;99.90
9987;DHT22;5033;46.310;11.214;2024-01-27T00:51:34;6.60;99.90
9987;DHT22;5033;46.310;11.214;2024-01-27T00:54:01;6.60;99.90
9987;DHT22;5033;46.310;11.214;2024-01-27T00:56:28;6.60;99.90
9987;DHT22;5033;46.310;11.214;2024-01-27T00:58:56;6.50;99.90
9987;DHT22;5033;46.310;11.214;2024-01-27T01:01:23;6.50;99.90
9987;DHT22;5033;46.310;11.214;2024-01-27T01:03:50;6.50;99.90
9987;DHT22;5033;46.310;11.214;2024-01-27T01:06:17;6.40;99.90
9987;DHT22;5033;46.310;11.214;2024-01-27T01:08:44;6.50;99.90
9987;DHT22;5033;46.310;11.214;2024-01-27T01:11:11;6.40;99.90
9987;DHT22;5033;46.310;11.214;2024-01-27T01:13:38;6.40;99.90
9987;DHT22;5033;46.310;11.214;2024-01-27T01:16:07;6.40;99.90
9987;DHT22;5033;46.310;11.214;2024-01-27T01:18:34;6.30;99.90
9987;DHT22;5033;46.310;11.214;2024-01-27T01:21:01;6.30;99.90
9987;DHT22;5033;46.310;11.214;2024-01-27T01:23:28;6.30;99.90
9987;DHT22;5033;46.310;11.214;2024-01-27T01:25:55;6.30;99.90
9987;DHT22;5033;46.310;11.214;2024-01-27T01:28:22;6.20;99.90
9987;DHT22;5033;46.310;11.214;2024-01-27T01:30:49;6.30;99.90
9987;DHT22;5033;46.310;11.214;2024-01-27T01:33:18;6.30;99.90
9987;DHT22;5033;46.310;11.214;2024-01-27T01:35:44;6.30;99.90
9987;DHT22;5033;46.310;11.214;2024-01-27T01:38:11;6.30;99.90
9987;DHT22;5033;46.310;11.214;2024-01-27T01:40:38;6.30;99.90
9987;DHT22;5033;46.310;11.214;2024-01-27T01:43:09;6.30;99.90
9987;DHT22;5033;46.310;11.214;2024-01-27T01:45:37;6.30;99.90
9987;DHT22;5033;46.310;11.214;2024-01-27T01:48:05;6.30;99.90
9987;DHT22;5033;46.310;11.214;2024-01-27T01:50:33;6.30;99.90
9987;DHT22;5033;46.310;11.214;2024-01-27T01:53:01;6.40;99.90
9987;DHT22;5033;46.310;11.214;2024-01-27T01:55:28;6.40;99.90
9987;DHT22;5033;46.310;11.214;2024-01-27T01:57:55;6.40;99.90
9987;DHT22;5033;46.310;11.214;2024-01-27T02:00:21;6.30;99.90
9987;DHT22;5033;46.310;11.214;2024-01-27T02:02:48;6.30;99.90
9987;DHT22;5033;46.310;11.214;2024-01-27T02:05:15;6.30;99.90
9987;DHT22;5033;46.310;11.214;2024-01-27T02:07:44;6.30;99.90
9987;DHT22;5033;46.310;11.214;2024-01-27T02:10:14;6.30;99.90
9987;DHT22;5033;46.310;11.214;2024-01-27T02:12:41;6.30;99.90
9987;DHT22;5033;46.310;11.214;2024-01-27T02:15:10;6.30;99.90
9987;DHT22;5033;46.310;11.214;2024-01-27T02:17:38;6.30;99.90
9987;DHT22;5033;46.310;11.214;2024-01-27T02:20:05;6.30;99.90
9987;DHT22;5033;46.310;11.214;2024-01-27T02:22:33;6.30;99.90
9987;DHT22;5033;46.310;11.214;2024-01-27T02:25:00;6.20;99.90
9987;DHT22;5033;46.310;11.214;2024-01-27T02:27:27;6.20;99.90
9987;DHT22;5033;46.310;11.214;2024-01-27T02:29:54;6.30;99.90
9987;DHT22;5033;46.310;11.214;2024-01-27T02:32:21;6.20;99.90
9987;DHT22;5033;46.310;11.214;2024-01-27T02:34:48;6.20;99.90
9987;DHT22;5033;46.310;11.214;2024-01-27T02:37:15;6.20;99.90
9987;DHT22;5033;46.310;11.214;2024-01-27T02:39:42;6.30;99.90
9987;DHT22;5033;46.310;11.214;2024-01-27T02:42:10;6.30;99.90
9987;DHT22;5033;46.310;11.214;2024-01-27T02:44:37;6.20;99.90
9987;DHT22;5033;46.310;11.214;2024-01-27T02:47:04;6.20;99.90
9987;DHT22;5033;46.310;11.214;2024-01-27T02:49:31;6.10;99.90
9987;DHT22;5033;46.310;11.214;2024-01-27T02:51:58;6.00;99.90
9987;DHT22;5033;46.310;11.214;2024-01-27T02:54:25;6.00;99.90
9987;DHT22;5033;46.310;11.214;2024-01-27T02:56:52;6.00;99.90
9987;DHT22;5033;46.310;11.214;2024-01-27T02:59:21;6.00;99.90
9987;DHT22;5033;46.310;11.214;2024-01-27T03:01:48;6.00;99.90
9987;DHT22;5033;46.310;11.214;2024-01-27T03:04:15;6.00;99.90
9987;DHT22;5033;46.310;11.214;2024-01-27T03:06:42;6.00;99.90
9987;DHT22;5033;46.310;11.214;2024-01-27T03:09:08;6.00;99.90
9987;DHT22;5033;46.310;11.214;2024-01-27T03:11:36;6.00;99.90
9987;DHT22;5033;46.310;11.214;2024-01-27T03:14:03;6.00;99.90
9987;DHT22;5033;46.310;11.214;2024-01-27T03:16:31;6.00;99.90
9987;DHT22;5033;46.310;11.214;2024-01-27T03:18:58;5.90;99.90
9987;DHT22;5033;46.310;11.214;2024-01-27T03:21:25;5.90;99.90
9987;DHT22;5033;46.310;11.214;2024-01-27T03:23:52;6.00;99.90
9987;DHT22;5033;46.310;11.214;2024-01-27T03:26:19;6.00;99.90
9987;DHT22;5033;46.310;11.214;2024-01-27T03:28:46;6.00;99.90
9987;DHT22;5033;46.310;11.214;2024-01-27T03:31:13;6.10;99.90
9987;DHT22;5033;46.310;11.214;2024-01-27T03:33:41;6.10;99.90
9987;DHT22;5033;46.310;11.214;2024-01-27T03:36:09;6.10;99.90
9987;DHT22;5033;46.310;11.214;2024-01-27T03:38:37;6.10;99.90
9987;DHT22;5033;46.310;11.214;2024-01-27T03:41:05;6.00;99.90
9987;DHT22;5033;46.310;11.214;2024-01-27T03:43:33;5.90;99.90
9987;DHT22;5033;46.310;11.214;2024-01-27T03:46:01;5.90;99.90
9987;DHT22;5033;46.310;11.214;2024-01-27T03:48:28;5.90;99.90
9987;DHT22;5033;46.310;11.214;2024-01-27T03:50:56;5.80;99.90
9987;DHT22;5033;46.310;11.214;2024-01-27T03:53:23;5.80;99.90
9987;DHT22;5033;46.310;11.214;2024-01-27T03:55:50;5.80;99.90
9987;DHT22;5033;46.310;11.214;2024-01-27T03:58:17;5.80;99.90
9987;DHT22;5033;46.310;11.214;2024-01-27T04:00:44;5.80;99.90
9987;DHT22;5033;46.310;11.214;2024-01-27T04:03:11;5.70;99.90
9987;DHT22;5033;46.310;11.214;2024-01-27T04:05:38;5.70;99.90
9987;DHT22;5033;46.310;11.214;2024-01-27T04:08:07;5.70;99.90
9987;DHT22;5033;46.310;11.214;2024-01-27T04:10:34;5.70;99.90
9987;DHT22;5033;46.310;11.214;2024-01-27T04:13:01;5.60;99.90
9987;DHT22;5033;46.310;11.214;2024-01-27T04:15:28;5.60;99.90
9987;DHT22;5033;46.310;11.214;2024-01-27T04:17:55;5.50;99.90
9987;DHT22;5033;46.310;11.214;2024-01-27T04:20:21;5.50;99.90
9987;DHT22;5033;46.310;11.214;2024-01-27T04:22:48;5.50;99.90
9987;DHT22;5033;46.310;11.214;2024-01-27T04:25:17;5.40;99.90
9987;DHT22;5033;46.310;11.214;2024-01-27T04:27:44;5.40;99.90
9987;DHT22;5033;46.310;11.214;2024-01-27T04:30:11;5.40;99.90
9987;DHT22;5033;46.310;11.214;2024-01-27T04:32:39;5.40;99.90
9987;DHT22;5033;46.310;11.214;2024-01-27T04:35:08;5.50;99.90
9987;DHT22;5033;46.310;11.214;2024-01-27T04:37:36;5.50;99.90
9987;DHT22;5033;46.310;11.214;2024-01-27T04:40:04;5.60;99.90
9987;DHT22;5033;46.310;11.214;2024-01-27T04:42:34;5.70;99.90
9987;DHT22;5033;46.310;11.214;2024-01-27T04:45:01;5.70;99.90
9987;DHT22;5033;46.310;11.214;2024-01-27T04:47:28;5.70;99.90
9987;DHT22;5033;46.310;11.214;2024-01-27T04:49:55;5.90;99.90
9987;DHT22;5033;46.310;11.214;2024-01-27T04:52:22;5.90;99.90
9987;DHT22;5033;46.310;11.214;2024-01-27T04:54:50;5.90;99.90
9987;DHT22;5033;46.310;11.214;2024-01-27T04:57:16;5.80;99.90
9987;DHT22;5033;46.310;11.214;2024-01-27T04:59:45;5.70;99.90
9987;DHT22;5033;46.310;11.214;2024-01-27T05:02:12;5.50;99.90
9987;DHT22;5033;46.310;11.214;2024-01-27T05:04:39;5.50;99.90
9987;DHT22;5033;46.310;11.214;2024-01-27T05:07:06;5.40;99.90
9987;DHT22;5033;46.310;11.214;2024-01-27T05:09:34;5.40;99.90
9987;DHT22;5033;46.310;11.214;2024-01-27T05:12:01;5.40;99.90
9987;DHT22;5033;46.310;11.214;2024-01-27T05:14:28;5.40;99.90
9987;DHT22;5033;46.310;11.214;2024-01-27T05:16:57;5.40;99.90
9987;DHT22;5033;46.310;11.214;2024-01-27T05:19:24;5.40;99.90
9987;DHT22;5033;46.310;11.214;2024-01-27T05:21:50;5.50;99.90
9987;DHT22;5033;46.310;11.214;2024-01-27T05:24:17;5.50;99.90
9987;DHT22;5033;46.310;11.214;2024-01-27T05:26:44;5.50;99.90
9987;DHT22;5033;46.310;11.214;2024-01-27T05:29:11;5.50;99.90
9987;DHT22;5033;46.310;11.214;2024-01-27T05:31:38;5.50;99.90
9987;DHT22;5033;46.310;11.214;2024-01-27T05:34:10;5.60;99.90
9987;DHT22;5033;46.310;11.214;2024-01-27T05:36:37;5.50;99.90
9987;DHT22;5033;46.310;11.214;2024-01-27T05:39:04;5.60;99.90
9987;DHT22;5033;46.310;11.214;2024-01-27T05:41:32;5.60;99.90
9987;DHT22;5033;46.310;11.214;2024-01-27T05:43:59;5.60;99.90
9987;DHT22;5033;46.310;11.214;2024-01-27T05:46:26;5.60;99.90
9987;DHT22;5033;46.310;11.214;2024-01-27T05:48:52;5.60;99.90
9987;DHT22;5033;46.310;11.214;2024-01-27T05:51:21;5.60;99.90
9987;DHT22;5033;46.310;11.214;2024-01-27T05:53:49;5.60;99.90
9987;DHT22;5033;46.310;11.214;2024-01-27T05:56:16;5.40;99.90
9987;DHT22;5033;46.310;11.214;2024-01-27T05:58:43;5.40;99.90
9987;DHT22;5033;46.310;11.214;2024-01-27T06:01:10;5.30;99.90
9987;DHT22;5033;46.310;11.214;2024-01-27T06:03:37;5.30;99.90
9987;DHT22;5033;46.310;11.214;2024-01-27T06:06:04;5.30;99.90
9987;DHT22;5033;46.310;11.214;2024-01-27T06:08:33;5.30;99.90
9987;DHT22;5033;46.310;11.214;2024-01-27T06:10:59;5.40;99.90
9987;DHT22;5033;46.310;11.214;2024-01-27T06:13:27;5.50;99.90
9987;DHT22;5033;46.310;11.214;2024-01-27T06:15:53;5.40;99.90
9987;DHT22;5033;46.310;11.214;2024-01-27T06:18:20;5.40;99.90
9987;DHT22;5033;46.310;11.214;2024-01-27T06:20:48;5.30;99.90
9987;DHT22;5033;46.310;11.214;2024-01-27T06:23:15;5.30;99.90
9987;DHT22;5033;46.310;11.214;2024-01-27T06:25:44;5.40;99.90
9987;DHT22;5033;46.310;11.214;2024-01-27T06:28:11;5.40;99.90
9987;DHT22;5033;46.310;11.214;2024-01-27T06:30:38;5.50;99.90
9987;DHT22;5033;46.310;11.214;2024-01-27T06:33:05;5.50;99.90
9987;DHT22;5033;46.310;11.214;2024-01-27T06:35:32;5.50;99.90
9987;DHT22;5033;46.310;11.214;2024-01-27T06:37:59;5.70;99.90
9987;DHT22;5033;46.310;11.214;2024-01-27T06:40:26;5.70;99.90
9987;DHT22;5033;46.310;11.214;2024-01-27T06:42:54;5.70;99.90
9987;DHT22;5033;46.310;11.214;2024-01-27T06:45:21;5.70;99.90
9987;DHT22;5033;46.310;11.214;2024-01-27T06:47:48;5.60;99.90
9987;DHT22;5033;46.310;11.214;2024-01-27T06:50:15;5.70;99.90
9987;DHT22;5033;46.310;11.214;2024-01-27T06:52:42;5.70;99.90
9987;DHT22;5033;46.310;11.214;2024-01-27T06:55:09;5.60;99.90
9987;DHT22;5033;46.310;11.214;2024-01-27T06:57:36;5.60;99.90
9987;DHT22;5033;46.310;11.214;2024-01-27T07:00:06;5.60;99.90
9987;DHT22;5033;46.310;11.214;2024-01-27T07:02:33;5.50;99.90
9987;DHT22;5033;46.310;11.214;2024-01-27T07:05:00;5.60;99.90
9987;DHT22;5033;46.310;11.214;2024-01-27T07:07:27;5.60;99.90
9987;DHT22;5033;46.310;11.214;2024-01-27T07:09:55;5.60;99.90
9987;DHT22;5033;46.310;11.214;2024-01-27T07:12:22;5.60;99.90
9987;DHT22;5033;46.310;11.214;2024-01-27T07:14:49;5.60;99.90
9987;DHT22;5033;46.310;11.214;2024-01-27T07:17:18;5.60;99.90
9987;DHT22;5033;46.310;11.214;2024-01-27T07:19:45;5.60;99.90
9987;DHT22;5033;46.310;11.214;2024-01-27T07:22:12;5.70;99.90
9987;DHT22;5033;46.310;11.214;2024-01-27T07:24:39;5.70;99.90
9987;DHT22;5033;46.310;11.214;2024-01-27T07:27:06;5.70;99.90
9987;DHT22;5033;46.310;11.214;2024-01-27T07:29:33;5.80;99.90
9987;DHT22;5033;46.310;11.214;2024-01-27T07:32:00;5.90;99.90
9987;DHT22;5033;46.310;11.214;2024-01-27T07:34:29;6.00;99.90
9987;DHT22;5033;46.310;11.214;2024-01-27T07:36:56;6.00;99.90
9987;DHT22;5033;46.310;11.214;2024-01-27T07:39:23;6.00;99.90
9987;DHT22;5033;46.310;11.214;2024-01-27T07:41:50;6.10;99.90
9987;DHT22;5033;46.310;11.214;2024-01-27T07:44:18;6.10;99.90
9987;DHT22;5033;46.310;11.214;2024-01-27T07:46:45;6.10;99.90
9987;DHT22;5033;46.310;11.214;2024-01-27T07:49:12;6.20;99.90
9987;DHT22;5033;46.310;11.214;2024-01-27T07:51:42;6.30;99.90
9987;DHT22;5033;46.310;11.214;2024-01-27T07:54:09;6.30;99.90
9987;DHT22;5033;46.310;11.214;2024-01-27T07:56:37;6.30;99.90
9987;DHT22;5033;46.310;11.214;2024-01-27T07:59:04;6.40;99.90
9987;DHT22;5033;46.310;11.214;2024-01-27T08:01:31;6.60;99.90
9987;DHT22;5033;46.310;11.214;2024-01-27T08:03:58;6.70;99.90
9987;DHT22;5033;46.310;11.214;2024-01-27T08:06:28;6.70;99.90
9987;DHT22;5033;46.310;11.214;2024-01-27T08:08:57;6.70;99.90
9987;DHT22;5033;46.310;11.214;2024-01-27T08:11:25;6.60;99.90
9987;DHT22;5033;46.310;11.214;2024-01-27T08:13:52;6.90;99.90
9987;DHT22;5033;46.310;11.214;2024-01-27T08:16:19;7.70;99.90
9987;DHT22;5033;46.310;11.214;2024-01-27T08:18:47;8.80;99.90
9987;DHT22;5033;46.310;11.214;2024-01-27T08:21:14;9.80;99.90
9987;DHT22;5033;46.310;11.214;2024-01-27T08:23:41;10.80;99.90
9987;DHT22;5033;46.310;11.214;2024-01-27T08:26:09;11.70;99.90
9987;DHT22;5033;46.310;11.214;2024-01-27T08:28:36;12.50;99.90
9987;DHT22;5033;46.310;11.214;2024-01-27T08:31:03;13.00;99.90
9987;DHT22;5033;46.310;11.214;2024-01-27T08:33:30;13.70;99.90
9987;DHT22;5033;46.310;11.214;2024-01-27T08:35:57;14.30;99.90
9987;DHT22;5033;46.310;11.214;2024-01-27T08:38:24;14.80;99.90
9987;DHT22;5033;46.310;11.214;2024-01-27T08:40:51;14.90;99.90
9987;DHT22;5033;46.310;11.214;2024-01-27T08:43:20;15.00;99.90
9987;DHT22;5033;46.310;11.214;2024-01-27T08:45:46;15.50;99.90
9987;DHT22;5033;46.310;11.214;2024-01-27T08:48:13;15.90;99.90
9987;DHT22;5033;46.310;11.214;2024-01-27T08:50:40;16.30;99.90
9987;DHT22;5033;46.310;11.214;2024-01-27T08:53:07;16.50;99.90
9987;DHT22;5033;46.310;11.214;2024-01-27T08:55:34;16.80;99.90
9987;DHT22;5033;46.310;11.214;2024-01-27T08:58:01;17.10;99.90
9987;DHT22;5033;46.310;11.214;2024-01-27T09:00:29;17.30;99.90
9987;DHT22;5033;46.310;11.214;2024-01-27T09:02:56;17.20;99.90
9987;DHT22;5033;46.310;11.214;2024-01-27T09:05:23;17.10;99.90
9987;DHT22;5033;46.310;11.214;2024-01-27T09:07:50;17.00;99.90
9987;DHT22;5033;46.310;11.214;2024-01-27T09:10:17;17.00;99.90
9987;DHT22;5033;46.310;11.214;2024-01-27T09:12:44;17.30;99.90
9987;DHT22;5033;46.310;11.214;2024-01-27T09:15:11;17.60;99.90
9987;DHT22;5033;46.310;11.214;2024-01-27T09:17:40;17.70;99.90
9987;DHT22;5033;46.310;11.214;2024-01-27T09:20:09;17.40;99.90
9987;DHT22;5033;46.310;11.214;2024-01-27T09:22:36;17.20;99.90
9987;DHT22;5033;46.310;11.214;2024-01-27T09:25:03;17.30;99.90
9987;DHT22;5033;46.310;11.214;2024-01-27T09:27:30;17.60;99.90
9987;DHT22;5033;46.310;11.214;2024-01-27T09:29:58;17.90;99.90
9987;DHT22;5033;46.310;11.214;2024-01-27T09:32:24;18.90;99.90
9987;DHT22;5033;46.310;11.214;2024-01-27T09:34:53;20.00;99.20
9987;DHT22;5033;46.310;11.214;2024-01-27T09:37:20;21.10;92.70
9987;DHT22;5033;46.310;11.214;2024-01-27T09:39:47;22.40;80.30
9987;DHT22;5033;46.310;11.214;2024-01-27T09:42:14;23.50;72.20
9987;DHT22;5033;46.310;11.214;2024-01-27T09:44:43;24.70;64.50
9987;DHT22;5033;46.310;11.214;2024-01-27T09:47:11;25.50;56.80
9987;DHT22;5033;46.310;11.214;2024-01-27T09:49:39;25.70;54.00
9987;DHT22;5033;46.310;11.214;2024-01-27T09:52:09;25.40;52.60
9987;DHT22;5033;46.310;11.214;2024-01-27T09:54:36;24.80;51.90
9987;DHT22;5033;46.310;11.214;2024-01-27T09:57:04;23.50;53.60
9987;DHT22;5033;46.310;11.214;2024-01-27T09:59:33;22.10;55.60
9987;DHT22;5033;46.310;11.214;2024-01-27T10:02:00;20.90;58.60
9987;DHT22;5033;46.310;11.214;2024-01-27T10:04:29;19.90;61.10
9987;DHT22;5033;46.310;11.214;2024-01-27T10:06:58;19.60;65.90
9987;DHT22;5033;46.310;11.214;2024-01-27T10:09:26;19.20;64.20
9987;DHT22;5033;46.310;11.214;2024-01-27T10:11:54;19.10;67.70
9987;DHT22;5033;46.310;11.214;2024-01-27T10:14:22;19.50;69.10
9987;DHT22;5033;46.310;11.214;2024-01-27T10:16:49;19.70;66.90
9987;DHT22;5033;46.310;11.214;2024-01-27T10:19:17;19.50;65.90
9987;DHT22;5033;46.310;11.214;2024-01-27T10:21:45;19.20;65.00
9987;DHT22;5033;46.310;11.214;2024-01-27T10:24:12;19.00;65.60
9987;DHT22;5033;46.310;11.214;2024-01-27T10:26:41;18.80;63.50
9987;DHT22;5033;46.310;11.214;2024-01-27T10:29:08;18.80;64.30
9987;DHT22;5033;46.310;11.214;2024-01-27T10:31:36;18.70;63.10
9987;DHT22;5033;46.310;11.214;2024-01-27T10:34:03;18.40;62.10
9987;DHT22;5033;46.310;11.214;2024-01-27T10:36:41;18.50;62.70
9987;DHT22;5033;46.310;11.214;2024-01-27T10:39:18;18.40;60.60
9987;DHT22;5033;46.310;11.214;2024-01-27T10:41:47;18.10;58.60
9987;DHT22;5033;46.310;11.214;2024-01-27T10:44:16;17.90;58.20
9987;DHT22;5033;46.310;11.214;2024-01-27T10:46:44;17.90;58.70
9987;DHT22;5033;46.310;11.214;2024-01-27T10:49:13;17.90;59.90
9987;DHT22;5033;46.310;11.214;2024-01-27T10:51:44;18.00;58.50
9987;DHT22;5033;46.310;11.214;2024-01-27T10:54:14;18.10;59.30
9987;DHT22;5033;46.310;11.214;2024-01-27T10:56:42;18.00;58.10
9987;DHT22;5033;46.310;11.214;2024-01-27T10:59:15;17.90;58.80
9987;DHT22;5033;46.310;11.214;2024-01-27T11:01:49;17.80;56.90
9987;DHT22;5033;46.310;11.214;2024-01-27T11:04:19;17.80;58.00
9987;DHT22;5033;46.310;11.214;2024-01-27T11:06:47;17.80;57.80
9987;DHT22;5033;46.310;11.214;2024-01-27T11:09:15;17.90;57.70
9987;DHT22;5033;46.310;11.214;2024-01-27T11:11:43;17.90;58.50
9987;DHT22;5033;46.310;11.214;2024-01-27T11:14:11;18.00;56.90
9987;DHT22;5033;46.310;11.214;2024-01-27T11:16:39;18.10;56.20
9987;DHT22;5033;46.310;11.214;2024-01-27T11:19:10;18.30;56.30
9987;DHT22;5033;46.310;11.214;2024-01-27T11:21:38;18.40;56.00
9987;DHT22;5033;46.310;11.214;2024-01-27T11:24:13;18.50;57.40
9987;DHT22;5033;46.310;11.214;2024-01-27T11:26:41;18.80;57.00
9987;DHT22;5033;46.310;11.214;2024-01-27T11:29:08;19.10;58.00
9987;DHT22;5033;46.310;11.214;2024-01-27T11:31:45;19.20;58.70
9987;DHT22;5033;46.310;11.214;2024-01-27T11:34:12;19.50;59.30
9987;DHT22;5033;46.310;11.214;2024-01-27T11:36:42;19.80;58.80
9987;DHT22;5033;46.310;11.214;2024-01-27T11:39:26;19.90;58.20
9987;DHT22;5033;46.310;11.214;2024-01-27T11:42:04;20.20;56.40
9987;DHT22;5033;46.310;11.214;2024-01-27T11:44:33;20.40;57.40
9987;DHT22;5033;46.310;11.214;2024-01-27T11:47:01;20.50;57.60
9987;DHT22;5033;46.310;11.214;2024-01-27T11:49:28;20.40;57.90
9987;DHT22;5033;46.310;11.214;2024-01-27T11:51:55;20.30;56.90
9987;DHT22;5033;46.310;11.214;2024-01-27T11:54:23;20.20;56.00
9987;DHT22;5033;46.310;11.214;2024-01-27T11:56:50;20.20;57.30
9987;DHT22;5033;46.310;11.214;2024-01-27T11:59:16;20.10;57.50
9987;DHT22;5033;46.310;11.214;2024-01-27T12:01:43;20.20;56.90
9987;DHT22;5033;46.310;11.214;2024-01-27T12:04:12;19.90;56.70
9987;DHT22;5033;46.310;11.214;2024-01-27T12:06:40;19.90;56.40
9987;DHT22;5033;46.310;11.214;2024-01-27T12:09:07;20.00;56.40
9987;DHT22;5033;46.310;11.214;2024-01-27T12:11:38;20.10;56.20
9987;DHT22;5033;46.310;11.214;2024-01-27T12:14:06;20.00;52.00
9987;DHT22;5033;46.310;11.214;2024-01-27T12:16:33;19.90;54.00
9987;DHT22;5033;46.310;11.214;2024-01-27T12:19:01;19.90;53.30
9987;DHT22;5033;46.310;11.214;2024-01-27T12:21:30;20.00;52.30
9987;DHT22;5033;46.310;11.214;2024-01-27T12:23:57;20.00;53.20
9987;DHT22;5033;46.310;11.214;2024-01-27T12:26:25;20.00;53.20
9987;DHT22;5033;46.310;11.214;2024-01-27T12:28:54;20.10;54.30
9987;DHT22;5033;46.310;11.214;2024-01-27T12:31:23;20.20;51.70
9987;DHT22;5033;46.310;11.214;2024-01-27T12:33:51;20.20;51.80
9987;DHT22;5033;46.310;11.214;2024-01-27T12:36:19;20.30;50.60
9987;DHT22;5033;46.310;11.214;2024-01-27T12:38:53;20.30;50.50
9987;DHT22;5033;46.310;11.214;2024-01-27T12:41:21;20.20;51.00
9987;DHT22;5033;46.310;11.214;2024-01-27T12:43:47;20.20;52.20
9987;DHT22;5033;46.310;11.214;2024-01-27T12:46:15;20.30;51.40
9987;DHT22;5033;46.310;11.214;2024-01-27T12:48:42;20.40;50.70
9987;DHT22;5033;46.310;11.214;2024-01-27T12:51:09;20.60;51.30
9987;DHT22;5033;46.310;11.214;2024-01-27T12:53:38;20.60;50.20
9987;DHT22;5033;46.310;11.214;2024-01-27T12:56:09;20.60;48.60
9987;DHT22;5033;46.310;11.214;2024-01-27T12:58:36;20.60;49.40
9987;DHT22;5033;46.310;11.214;2024-01-27T13:01:04;20.50;46.30
9987;DHT22;5033;46.310;11.214;2024-01-27T13:03:31;20.30;47.70
9987;DHT22;5033;46.310;11.214;2024-01-27T13:05:58;20.10;47.10
9987;DHT22;5033;46.310;11.214;2024-01-27T13:08:25;20.10;48.60
9987;DHT22;5033;46.310;11.214;2024-01-27T13:10:52;19.90;46.60
9987;DHT22;5033;46.310;11.214;2024-01-27T13:13:20;19.80;48.30
9987;DHT22;5033;46.310;11.214;2024-01-27T13:15:47;19.90;47.30
9987;DHT22;5033;46.310;11.214;2024-01-27T13:18:14;20.00;48.50
9987;DHT22;5033;46.310;11.214;2024-01-27T13:20:41;20.20;47.80
9987;DHT22;5033;46.310;11.214;2024-01-27T13:23:08;20.10;46.00
9987;DHT22;5033;46.310;11.214;2024-01-27T13:25:35;19.80;46.50
9987;DHT22;5033;46.310;11.214;2024-01-27T13:28:02;19.70;47.60
9987;DHT22;5033;46.310;11.214;2024-01-27T13:30:31;19.80;48.20
9987;DHT22;5033;46.310;11.214;2024-01-27T13:32:58;19.90;46.70
9987;DHT22;5033;46.310;11.214;2024-01-27T13:35:24;19.90;47.40
9987;DHT22;5033;46.310;11.214;2024-01-27T13:37:52;19.90;47.60
9987;DHT22;5033;46.310;11.214;2024-01-27T13:40:19;19.90;47.90
9987;DHT22;5033;46.310;11.214;2024-01-27T13:42:46;19.90;47.70
9987;DHT22;5033;46.310;11.214;2024-01-27T13:45:13;19.90;47.90
9987;DHT22;5033;46.310;11.214;2024-01-27T13:47:41;20.00;47.80
9987;DHT22;5033;46.310;11.214;2024-01-27T13:50:09;20.10;47.80
9987;DHT22;5033;46.310;11.214;2024-01-27T13:52:36;20.20;47.80
9987;DHT22;5033;46.310;11.214;2024-01-27T13:55:04;20.20;46.50
9987;DHT22;5033;46.310;11.214;2024-01-27T13:57:31;20.10;46.80
9987;DHT22;5033;46.310;11.214;2024-01-27T13:59:58;19.70;45.40
9987;DHT22;5033;46.310;11.214;2024-01-27T14:02:26;19.40;45.40
9987;DHT22;5033;46.310;11.214;2024-01-27T14:04:54;19.20;46.40
9987;DHT22;5033;46.310;11.214;2024-01-27T14:07:21;19.00;47.40
9987;DHT22;5033;46.310;11.214;2024-01-27T14:09:48;19.00;47.40
9987;DHT22;5033;46.310;11.214;2024-01-27T14:12:15;19.10;47.50
9987;DHT22;5033;46.310;11.214;2024-01-27T14:14:42;19.20;47.50
9987;DHT22;5033;46.310;11.214;2024-01-27T14:17:09;19.20;48.10
9987;DHT22;5033;46.310;11.214;2024-01-27T14:19:36;19.30;46.40
9987;DHT22;5033;46.310;11.214;2024-01-27T14:22:05;19.10;48.60
9987;DHT22;5033;46.310;11.214;2024-01-27T14:24:32;18.90;49.10
9987;DHT22;5033;46.310;11.214;2024-01-27T14:26:59;18.50;50.10
9987;DHT22;5033;46.310;11.214;2024-01-27T14:29:26;18.20;50.40
9987;DHT22;5033;46.310;11.214;2024-01-27T14:31:53;17.90;51.40
9987;DHT22;5033;46.310;11.214;2024-01-27T14:34:21;17.60;51.50
9987;DHT22;5033;46.310;11.214;2024-01-27T14:36:48;17.40;52.50
9987;DHT22;5033;46.310;11.214;2024-01-27T14:39:16;17.20;52.50
9987;DHT22;5033;46.310;11.214;2024-01-27T14:41:43;17.00;53.80
9987;DHT22;5033;46.310;11.214;2024-01-27T14:44:10;16.70;53.10
9987;DHT22;5033;46.310;11.214;2024-01-27T14:46:37;16.50;53.10
9987;DHT22;5033;46.310;11.214;2024-01-27T14:49:06;16.20;52.90
9987;DHT22;5033;46.310;11.214;2024-01-27T14:51:33;16.00;55.20
9987;DHT22;5033;46.310;11.214;2024-01-27T14:54:01;15.80;53.90
9987;DHT22;5033;46.310;11.214;2024-01-27T14:56:31;15.70;54.10
9987;DHT22;5033;46.310;11.214;2024-01-27T14:58:58;15.50;55.40
9987;DHT22;5033;46.310;11.214;2024-01-27T15:01:25;15.40;54.60
9987;DHT22;5033;46.310;11.214;2024-01-27T15:03:53;15.30;54.60
9987;DHT22;5033;46.310;11.214;2024-01-27T15:06:20;15.10;54.80
9987;DHT22;5033;46.310;11.214;2024-01-27T15:08:47;15.00;55.30
9987;DHT22;5033;46.310;11.214;2024-01-27T15:11:14;14.90;56.20
9987;DHT22;5033;46.310;11.214;2024-01-27T15:13:42;14.90;57.80
9987;DHT22;5033;46.310;11.214;2024-01-27T15:16:09;14.80;57.60
9987;DHT22;5033;46.310;11.214;2024-01-27T15:18:37;14.80;57.10
9987;DHT22;5033;46.310;11.214;2024-01-27T15:21:06;14.70;56.60
9987;DHT22;5033;46.310;11.214;2024-01-27T15:23:33;14.60;57.10
9987;DHT22;5033;46.310;11.214;2024-01-27T15:26:02;14.50;56.70
9987;DHT22;5033;46.310;11.214;2024-01-27T15:28:31;14.40;56.70
9987;DHT22;5033;46.310;11.214;2024-01-27T15:30:59;14.30;57.60
9987;DHT22;5033;46.310;11.214;2024-01-27T15:33:26;14.30;58.50
9987;DHT22;5033;46.310;11.214;2024-01-27T15:35:53;14.20;58.30
9987;DHT22;5033;46.310;11.214;2024-01-27T15:38:20;14.10;56.70
9987;DHT22;5033;46.310;11.214;2024-01-27T15:40:47;14.10;58.20
9987;DHT22;5033;46.310;11.214;2024-01-27T15:43:14;14.10;58.50
9987;DHT22;5033;46.310;11.214;2024-01-27T15:45:41;14.00;58.00
9987;DHT22;5033;46.310;11.214;2024-01-27T15:48:09;13.90;57.10
9987;DHT22;5033;46.310;11.214;2024-01-27T15:50:37;13.70;57.30
9987;DHT22;5033;46.310;11.214;2024-01-27T15:53:04;13.60;57.00
9987;DHT22;5033;46.310;11.214;2024-01-27T15:55:32;13.50;55.90